La Dolce Vita — WDG8843 — position and weather

sailwx.info

Track history (hours):
 
Tides and Currents Weather Stations Pressure Air Temp Water Temp Dewpoint Dewpoint Depression Visibility Wind Speed Wind Dir Waves Ship Positions

La Dolce Vita

Owner: Gilbertson Jr, Robert B, Seattle, WA. More information available from US FCC via Universal Licensing System and Coast Guard Vessel Documentation Center.

Last reported at 2018-Jun-20 04:45 UTC. Time now 2018-Jun-21 17:45 UTC.
Position N 47°41' W 122°24'.

Length 9 m.

Type: Pleasure craft. MMSI: 367581630.

Date/timePositionNaut miles runAvg speedWind from/ knotsBaromVisibWave heightAir tempDewpointWater temp
2018-Jun-20 04:45N 47°41' W 122°24'0 0.6
2018-Jun-20 04:30N 47°41' W 122°24'1 1.3
2018-Jun-20 04:00N 47°41' W 122°25'2 3.8
2018-Jun-20 03:29N 47°43' W 122°26'2 3.9
2018-Jun-20 03:00N 47°45' W 122°25'2 4.9
2018-Jun-20 02:30N 47°43' W 122°28'2 4.4
2018-Jun-20 02:00N 47°43' W 122°31'3 6.1
2018-Jun-20 01:30N 47°42' W 122°27'2 3.8
2018-Jun-20 01:00N 47°41' W 122°25'0 0.8
2018-Jun-20 00:30N 47°41' W 122°24'0 0.0
2018-Jun-18 22:35N 47°41' W 122°24'0 0.1
2018-Jun-18 22:29N 47°41' W 122°24'0 0.0
2018-Jun-18 21:59N 47°41' W 122°24'0 0.1
2018-Jun-18 21:29N 47°41' W 122°24'0 0.2
2018-Jun-18 21:00N 47°41' W 122°25'2 4.4
2018-Jun-18 20:30N 47°39' W 122°26'3 6.4
2018-Jun-18 19:59N 47°36' W 122°25'3 6.0
2018-Jun-18 19:30N 47°34' W 122°28'1 2.8
2018-Jun-18 19:00N 47°33' W 122°29'0 0.0
2018-Jun-18 03:59N 47°33' W 122°29'0 0.0
2018-Jun-18 03:29N 47°33' W 122°29'0 0.0
2018-Jun-18 02:59N 47°33' W 122°29'0 0.0
2018-Jun-18 02:29N 47°33' W 122°29'0 0.0
2018-Jun-18 01:59N 47°33' W 122°29'0 0.0
2018-Jun-18 01:29N 47°33' W 122°29'0 0.0
2018-Jun-17 22:27N 47°33' W 122°29'0 0.0
2018-Jun-17 21:31N 47°33' W 122°29'0 0.0
2018-Jun-17 21:30N 47°33' W 122°29'0 0.0
2018-Jun-17 20:59N 47°33' W 122°29'2 3.5
2018-Jun-17 20:29N 47°34' W 122°31'3 6.0
2018-Jun-17 20:00N 47°35' W 122°34'8 0.3
2018-Jun-16 20:38N 47°43' W 122°33'1 7.2
2018-Jun-16 20:29N 47°44' W 122°32'3 6.1
2018-Jun-16 20:00N 47°43' W 122°27'3 5.0
2018-Jun-16 19:30N 47°41' W 122°25'0 0.7
2018-Jun-16 18:58N 47°41' W 122°24'0 0.0
2018-Jun-16 18:22N 47°41' W 122°24'0 0.0
2018-Jun-16 17:58N 47°41' W 122°24'0 0.0
2018-Jun-16 03:35N 47°41' W 122°24'0 0.4
2018-Jun-16 03:28N 47°41' W 122°24'2 4.5
2018-Jun-16 03:00N 47°42' W 122°27'3 6.5
2018-Jun-16 02:30N 47°43' W 122°32'1 2.2
2018-Jun-16 02:00N 47°43' W 122°33'2 4.6
2018-Jun-16 01:30N 47°43' W 122°30'2 4.8
2018-Jun-16 01:00N 47°42' W 122°26'2 3.0
2018-Jun-16 00:29N 47°41' W 122°24'  
2018-Jun-10 22:22N 47°41' W 122°24'0 0.1
2018-Jun-10 22:00N 47°41' W 122°24'0 0.1
2018-Jun-10 21:30N 47°41' W 122°24'1 1.3
2018-Jun-10 21:01N 47°41' W 122°24'2 4.2
2018-Jun-10 20:30N 47°43' W 122°26'2 3.5
2018-Jun-10 20:01N 47°44' W 122°28'3 5.3
2018-Jun-10 19:31N 47°44' W 122°32'  
Track history (hours):
 
Tides and Currents Weather Stations Pressure Air Temp Water Temp Dewpoint Dewpoint Depression Visibility Wind Speed Wind Dir Waves Ship Positions

La Dolce Vita

Owner: Gilbertson Jr, Robert B, Seattle, WA. More information available from US FCC via Universal Licensing System and Coast Guard Vessel Documentation Center.

Last reported at 2018-Jun-20 04:45 UTC. Time now 2018-Jun-21 17:45 UTC.
Position N 47°41' W 122°24'.

Length 9 m.

Type: Pleasure craft. MMSI: 367581630.

Date/timePositionNaut miles runAvg speedWind from/ knotsBaromVisibWave heightAir tempDewpointWater temp
2018-Jun-20 04:45N 47°41' W 122°24'0 0.6
2018-Jun-20 04:30N 47°41' W 122°24'1 1.3
2018-Jun-20 04:00N 47°41' W 122°25'2 3.8
2018-Jun-20 03:29N 47°43' W 122°26'2 3.9
2018-Jun-20 03:00N 47°45' W 122°25'2 4.9
2018-Jun-20 02:30N 47°43' W 122°28'2 4.4
2018-Jun-20 02:00N 47°43' W 122°31'3 6.1
2018-Jun-20 01:30N 47°42' W 122°27'2 3.8
2018-Jun-20 01:00N 47°41' W 122°25'0 0.8
2018-Jun-20 00:30N 47°41' W 122°24'0 0.0
2018-Jun-18 22:35N 47°41' W 122°24'0 0.1
2018-Jun-18 22:29N 47°41' W 122°24'0 0.0
2018-Jun-18 21:59N 47°41' W 122°24'0 0.1
2018-Jun-18 21:29N 47°41' W 122°24'0 0.2
2018-Jun-18 21:00N 47°41' W 122°25'2 4.4
2018-Jun-18 20:30N 47°39' W 122°26'3 6.4
2018-Jun-18 19:59N 47°36' W 122°25'3 6.0
2018-Jun-18 19:30N 47°34' W 122°28'1 2.8
2018-Jun-18 19:00N 47°33' W 122°29'0 0.0
2018-Jun-18 03:59N 47°33' W 122°29'0 0.0
2018-Jun-18 03:29N 47°33' W 122°29'0 0.0
2018-Jun-18 02:59N 47°33' W 122°29'0 0.0
2018-Jun-18 02:29N 47°33' W 122°29'0 0.0
2018-Jun-18 01:59N 47°33' W 122°29'0 0.0
2018-Jun-18 01:29N 47°33' W 122°29'0 0.0
2018-Jun-17 22:27N 47°33' W 122°29'0 0.0
2018-Jun-17 21:31N 47°33' W 122°29'0 0.0
2018-Jun-17 21:30N 47°33' W 122°29'0 0.0
2018-Jun-17 20:59N 47°33' W 122°29'2 3.5
2018-Jun-17 20:29N 47°34' W 122°31'3 6.0
2018-Jun-17 20:00N 47°35' W 122°34'8 0.3
2018-Jun-16 20:38N 47°43' W 122°33'1 7.2
2018-Jun-16 20:29N 47°44' W 122°32'3 6.1
2018-Jun-16 20:00N 47°43' W 122°27'3 5.0
2018-Jun-16 19:30N 47°41' W 122°25'0 0.7
2018-Jun-16 18:58N 47°41' W 122°24'0 0.0
2018-Jun-16 18:22N 47°41' W 122°24'0 0.0
2018-Jun-16 17:58N 47°41' W 122°24'0 0.0
2018-Jun-16 03:35N 47°41' W 122°24'0 0.4
2018-Jun-16 03:28N 47°41' W 122°24'2 4.5
2018-Jun-16 03:00N 47°42' W 122°27'3 6.5
2018-Jun-16 02:30N 47°43' W 122°32'1 2.2
2018-Jun-16 02:00N 47°43' W 122°33'2 4.6
2018-Jun-16 01:30N 47°43' W 122°30'2 4.8
2018-Jun-16 01:00N 47°42' W 122°26'2 3.0
2018-Jun-16 00:29N 47°41' W 122°24'  
2018-Jun-10 22:22N 47°41' W 122°24'0 0.1
2018-Jun-10 22:00N 47°41' W 122°24'0 0.1
2018-Jun-10 21:30N 47°41' W 122°24'1 1.3
2018-Jun-10 21:01N 47°41' W 122°24'2 4.2
2018-Jun-10 20:30N 47°43' W 122°26'2 3.5
2018-Jun-10 20:01N 47°44' W 122°28'3 5.3
2018-Jun-10 19:31N 47°44' W 122°32'  

Dump ship's entire track history